sensor_id;sensor_type;location;lat;lon;timestamp;pressure;altitude;pressure_sealevel;temperature;humidity
52745;BME280;38637;49.984;20.426;2023-07-08T00:00:37;99959.09;;;16.68;79.00
52745;BME280;38637;49.984;20.426;2023-07-08T00:03:02;99965.47;;;16.68;79.18
52745;BME280;38637;49.984;20.426;2023-07-08T00:05:27;99968.81;;;16.65;79.04
52745;BME280;38637;49.984;20.426;2023-07-08T00:07:53;99967.72;;;16.61;79.14
52745;BME280;38637;49.984;20.426;2023-07-08T00:10:19;99968.03;;;16.54;79.24
52745;BME280;38637;49.984;20.426;2023-07-08T00:12:46;99972.19;;;16.52;79.38
52745;BME280;38637;49.984;20.426;2023-07-08T00:15:13;99963.09;;;16.51;79.15
52745;BME280;38637;49.984;20.426;2023-07-08T00:17:38;99970.00;;;16.49;79.13
52745;BME280;38637;49.984;20.426;2023-07-08T00:22:47;99972.50;;;16.45;78.86
52745;BME280;38637;49.984;20.426;2023-07-08T00:25:15;99976.41;;;16.44;78.77
52745;BME280;38637;49.984;20.426;2023-07-08T00:27:40;99974.72;;;16.43;79.05
52745;BME280;38637;49.984;20.426;2023-07-08T00:30:25;99973.66;;;16.39;78.97
52745;BME280;38637;49.984;20.426;2023-07-08T00:32:51;99970.94;;;16.34;78.77
52745;BME280;38637;49.984;20.426;2023-07-08T00:35:34;99978.13;;;16.30;78.89
52745;BME280;38637;49.984;20.426;2023-07-08T00:38:00;99974.00;;;16.27;78.42
52745;BME280;38637;49.984;20.426;2023-07-08T00:40:37;99980.91;;;16.25;78.66
52745;BME280;38637;49.984;20.426;2023-07-08T00:43:03;99965.78;;;16.22;78.44
52745;BME280;38637;49.984;20.426;2023-07-08T00:45:41;99968.56;;;16.17;78.68
52745;BME280;38637;49.984;20.426;2023-07-08T00:48:24;99968.31;;;16.14;78.45
52745;BME280;38637;49.984;20.426;2023-07-08T00:50:51;99967.22;;;16.09;78.86
52745;BME280;38637;49.984;20.426;2023-07-08T00:53:30;99965.31;;;16.10;78.71
52745;BME280;38637;49.984;20.426;2023-07-08T00:56:00;99957.84;;;16.11;78.80
52745;BME280;38637;49.984;20.426;2023-07-08T00:58:29;99963.63;;;16.09;78.70
52745;BME280;38637;49.984;20.426;2023-07-08T01:00:56;99956.22;;;16.04;78.90
52745;BME280;38637;49.984;20.426;2023-07-08T01:03:22;99969.75;;;16.01;78.94
52745;BME280;38637;49.984;20.426;2023-07-08T01:05:48;99961.22;;;15.97;78.78
52745;BME280;38637;49.984;20.426;2023-07-08T01:08:14;99956.56;;;15.93;78.66
52745;BME280;38637;49.984;20.426;2023-07-08T01:10:43;99967.59;;;15.93;78.75
52745;BME280;38637;49.984;20.426;2023-07-08T01:13:09;99962.91;;;15.88;79.11
52745;BME280;38637;49.984;20.426;2023-07-08T01:15:37;99963.47;;;15.85;79.36
52745;BME280;38637;49.984;20.426;2023-07-08T01:18:04;99962.69;;;15.79;79.09
52745;BME280;38637;49.984;20.426;2023-07-08T01:20:29;99950.56;;;15.75;78.98
52745;BME280;38637;49.984;20.426;2023-07-08T01:22:55;99950.88;;;15.74;79.08
52745;BME280;38637;49.984;20.426;2023-07-08T01:25:20;99956.63;;;15.72;79.32
52745;BME280;38637;49.984;20.426;2023-07-08T01:27:47;99947.84;;;15.70;79.17
52745;BME280;38637;49.984;20.426;2023-07-08T01:30:13;99952.81;;;15.68;79.42
52745;BME280;38637;49.984;20.426;2023-07-08T01:32:39;99944.56;;;15.68;79.54
52745;BME280;38637;49.984;20.426;2023-07-08T01:35:05;99950.59;;;15.65;79.69
52745;BME280;38637;49.984;20.426;2023-07-08T01:37:36;99947.28;;;15.63;79.45
52745;BME280;38637;49.984;20.426;2023-07-08T01:42:46;99945.94;;;15.55;79.48
52745;BME280;38637;49.984;20.426;2023-07-08T01:45:11;99952.28;;;15.51;79.66
52745;BME280;38637;49.984;20.426;2023-07-08T01:47:37;99953.41;;;15.50;79.70
52745;BME280;38637;49.984;20.426;2023-07-08T01:50:03;99952.84;;;15.48;79.87
52745;BME280;38637;49.984;20.426;2023-07-08T01:52:28;99955.34;;;15.39;80.69
52745;BME280;38637;49.984;20.426;2023-07-08T01:54:56;99955.88;;;15.36;80.59
52745;BME280;38637;49.984;20.426;2023-07-08T01:57:22;99953.69;;;15.38;80.36
52745;BME280;38637;49.984;20.426;2023-07-08T01:59:47;99956.44;;;15.38;80.27
52745;BME280;38637;49.984;20.426;2023-07-08T02:02:12;99957.28;;;15.38;80.17
52745;BME280;38637;49.984;20.426;2023-07-08T02:04:37;99958.63;;;15.41;79.99
52745;BME280;38637;49.984;20.426;2023-07-08T02:07:03;99958.09;;;15.39;79.81
52745;BME280;38637;49.984;20.426;2023-07-08T02:09:29;99957.28;;;15.38;79.94
52745;BME280;38637;49.984;20.426;2023-07-08T02:11:55;99961.94;;;15.38;79.44
52745;BME280;38637;49.984;20.426;2023-07-08T02:14:20;99966.09;;;15.35;79.53
52745;BME280;38637;49.984;20.426;2023-07-08T02:16:46;99963.06;;;15.32;79.66
52745;BME280;38637;49.984;20.426;2023-07-08T02:19:11;99963.06;;;15.32;80.01
52745;BME280;38637;49.984;20.426;2023-07-08T02:21:37;99968.31;;;15.28;80.08
52745;BME280;38637;49.984;20.426;2023-07-08T02:24:02;99965.81;;;15.27;80.30
52745;BME280;38637;49.984;20.426;2023-07-08T02:26:27;99965.81;;;15.27;80.10
52745;BME280;38637;49.984;20.426;2023-07-08T02:28:53;99972.69;;;15.29;79.88
52745;BME280;38637;49.984;20.426;2023-07-08T02:31:18;99962.81;;;15.28;80.04
52745;BME280;38637;49.984;20.426;2023-07-08T02:33:43;99971.31;;;15.27;79.59
52745;BME280;38637;49.984;20.426;2023-07-08T02:36:08;99971.63;;;15.25;79.79
52745;BME280;38637;49.984;20.426;2023-07-08T02:38:33;99967.19;;;15.24;79.72
52745;BME280;38637;49.984;20.426;2023-07-08T02:40:59;99971.06;;;15.23;79.33
52745;BME280;38637;49.984;20.426;2023-07-08T02:43:24;99962.25;;;15.21;79.54
52745;BME280;38637;49.984;20.426;2023-07-08T02:45:50;99966.09;;;15.20;79.69
52745;BME280;38637;49.984;20.426;2023-07-08T02:48:16;99970.78;;;15.20;80.18
52745;BME280;38637;49.984;20.426;2023-07-08T02:50:42;99974.09;;;15.22;80.02
52745;BME280;38637;49.984;20.426;2023-07-08T02:53:07;99966.41;;;15.19;80.05
52745;BME280;38637;49.984;20.426;2023-07-08T02:55:32;99979.88;;;15.20;80.29
52745;BME280;38637;49.984;20.426;2023-07-08T02:57:57;99977.66;;;15.17;80.45
52745;BME280;38637;49.984;20.426;2023-07-08T03:00:23;99978.22;;;15.14;80.72
52745;BME280;38637;49.984;20.426;2023-07-08T03:02:48;99973.28;;;15.11;81.16
52745;BME280;38637;49.984;20.426;2023-07-08T03:05:13;99976.88;;;15.06;81.18
52745;BME280;38637;49.984;20.426;2023-07-08T03:07:38;99977.41;;;15.03;81.44
52745;BME280;38637;49.984;20.426;2023-07-08T03:10:03;99990.88;;;15.10;81.33
52745;BME280;38637;49.984;20.426;2023-07-08T03:12:29;99995.03;;;15.12;81.07
52745;BME280;38637;49.984;20.426;2023-07-08T03:14:54;99990.88;;;15.15;81.02
52745;BME280;38637;49.984;20.426;2023-07-08T03:17:19;99997.75;;;15.23;80.98
52745;BME280;38637;49.984;20.426;2023-07-08T03:19:44;99997.19;;;15.31;80.42
52745;BME280;38637;49.984;20.426;2023-07-08T03:22:10;99997.44;;;15.39;80.21
52745;BME280;38637;49.984;20.426;2023-07-08T03:24:35;99996.63;;;15.49;80.17
52745;BME280;38637;49.984;20.426;2023-07-08T03:27:00;100000.41;;;15.63;79.64
52745;BME280;38637;49.984;20.426;2023-07-08T03:29:29;99989.94;;;15.81;79.38
52745;BME280;38637;49.984;20.426;2023-07-08T03:31:55;99993.94;;;16.09;78.38
52745;BME280;38637;49.984;20.426;2023-07-08T03:34:20;99999.53;;;16.43;77.18
52745;BME280;38637;49.984;20.426;2023-07-08T03:36:46;99998.25;;;16.75;76.14
52745;BME280;38637;49.984;20.426;2023-07-08T03:39:14;100003.47;;;17.11;74.98
52745;BME280;38637;49.984;20.426;2023-07-08T03:41:39;100001.00;;;17.38;73.57
52745;BME280;38637;49.984;20.426;2023-07-08T03:44:05;99991.97;;;17.57;72.02
52745;BME280;38637;49.984;20.426;2023-07-08T03:46:30;99991.00;;;17.72;71.03
52745;BME280;38637;49.984;20.426;2023-07-08T03:48:55;99992.84;;;17.81;70.05
52745;BME280;38637;49.984;20.426;2023-07-08T03:51:21;99997.19;;;17.87;69.62
52745;BME280;38637;49.984;20.426;2023-07-08T03:53:47;100000.44;;;17.95;69.99
52745;BME280;38637;49.984;20.426;2023-07-08T03:56:12;99993.91;;;18.09;69.55
52745;BME280;38637;49.984;20.426;2023-07-08T03:58:38;99995.59;;;18.24;69.03
52745;BME280;38637;49.984;20.426;2023-07-08T04:01:03;99996.84;;;18.37;68.51
52745;BME280;38637;49.984;20.426;2023-07-08T04:03:28;99989.41;;;18.51;68.00
52745;BME280;38637;49.984;20.426;2023-07-08T04:05:55;99996.78;;;18.61;67.63
52745;BME280;38637;49.984;20.426;2023-07-08T04:08:20;100000.56;;;18.65;67.62
52745;BME280;38637;49.984;20.426;2023-07-08T04:10:45;99988.88;;;18.73;67.82
52745;BME280;38637;49.984;20.426;2023-07-08T04:13:10;99988.47;;;18.80;67.87
52745;BME280;38637;49.984;20.426;2023-07-08T04:15:36;99992.22;;;18.89;67.14
52745;BME280;38637;49.984;20.426;2023-07-08T04:18:01;99991.84;;;19.10;66.92
52745;BME280;38637;49.984;20.426;2023-07-08T04:20:26;99978.25;;;19.27;65.95
52745;BME280;38637;49.984;20.426;2023-07-08T04:22:51;99981.06;;;19.41;65.25
52745;BME280;38637;49.984;20.426;2023-07-08T04:25:17;99986.00;;;19.58;64.45
52745;BME280;38637;49.984;20.426;2023-07-08T04:27:43;99986.53;;;19.73;63.40
52745;BME280;38637;49.984;20.426;2023-07-08T04:30:14;99979.78;;;19.80;62.51
52745;BME280;38637;49.984;20.426;2023-07-08T04:32:43;99984.50;;;19.93;62.50
52745;BME280;38637;49.984;20.426;2023-07-08T04:35:08;99984.38;;;19.98;62.78
52745;BME280;38637;49.984;20.426;2023-07-08T04:37:34;99975.03;;;20.08;63.31
52745;BME280;38637;49.984;20.426;2023-07-08T04:39:59;99981.00;;;20.15;62.84
52745;BME280;38637;49.984;20.426;2023-07-08T04:42:25;99976.88;;;20.12;62.75
52745;BME280;38637;49.984;20.426;2023-07-08T04:44:53;99980.84;;;20.20;63.01
52745;BME280;38637;49.984;20.426;2023-07-08T04:47:19;99982.91;;;20.28;62.97
52745;BME280;38637;49.984;20.426;2023-07-08T04:49:45;99983.69;;;20.42;63.11
52745;BME280;38637;49.984;20.426;2023-07-08T04:52:12;99988.41;;;20.56;62.26
52745;BME280;38637;49.984;20.426;2023-07-08T04:54:37;99991.56;;;20.63;62.25
52745;BME280;38637;49.984;20.426;2023-07-08T04:57:02;99985.09;;;20.68;61.64
52745;BME280;38637;49.984;20.426;2023-07-08T04:59:28;99991.00;;;20.75;61.74
52745;BME280;38637;49.984;20.426;2023-07-08T05:01:53;99993.03;;;20.83;60.99
52745;BME280;38637;49.984;20.426;2023-07-08T05:04:19;99984.44;;;20.93;60.52
52745;BME280;38637;49.984;20.426;2023-07-08T05:06:45;99985.97;;;20.99;60.46
52745;BME280;38637;49.984;20.426;2023-07-08T05:09:10;99984.84;;;21.00;60.40
52745;BME280;38637;49.984;20.426;2023-07-08T05:11:36;99991.22;;;21.01;59.37
52745;BME280;38637;49.984;20.426;2023-07-08T05:14:02;99995.63;;;21.02;59.31
52745;BME280;38637;49.984;20.426;2023-07-08T05:16:27;99984.84;;;21.00;60.29
52745;BME280;38637;49.984;20.426;2023-07-08T05:18:53;99990.47;;;21.09;60.47
52745;BME280;38637;49.984;20.426;2023-07-08T05:21:18;99980.66;;;21.11;60.73
52745;BME280;38637;49.984;20.426;2023-07-08T05:23:44;99985.78;;;21.18;60.16
52745;BME280;38637;49.984;20.426;2023-07-08T05:26:10;99986.91;;;21.17;59.12
52745;BME280;38637;49.984;20.426;2023-07-08T05:28:35;99988.13;;;21.25;60.48
52745;BME280;38637;49.984;20.426;2023-07-08T05:31:00;99988.47;;;21.32;60.98
52745;BME280;38637;49.984;20.426;2023-07-08T05:33:26;99979.41;;;21.40;60.85
52745;BME280;38637;49.984;20.426;2023-07-08T05:35:52;99985.31;;;21.47;60.33
52745;BME280;38637;49.984;20.426;2023-07-08T05:38:17;99979.00;;;21.55;60.19
52745;BME280;38637;49.984;20.426;2023-07-08T05:40:42;99986.19;;;21.56;59.67
52745;BME280;38637;49.984;20.426;2023-07-08T05:43:08;99977.19;;;21.60;58.93
52745;BME280;38637;49.984;20.426;2023-07-08T05:45:33;99974.94;;;21.62;60.23
52745;BME280;38637;49.984;20.426;2023-07-08T05:48:00;99976.03;;;21.61;57.63
52745;BME280;38637;49.984;20.426;2023-07-08T05:50:25;99972.63;;;21.64;56.66
52745;BME280;38637;49.984;20.426;2023-07-08T05:52:51;99971.84;;;21.72;57.99
52745;BME280;38637;49.984;20.426;2023-07-08T05:55:16;99971.03;;;21.71;57.39
52745;BME280;38637;49.984;20.426;2023-07-08T05:57:41;99971.72;;;21.77;57.29
52745;BME280;38637;49.984;20.426;2023-07-08T06:00:06;99969.91;;;21.81;56.75
52745;BME280;38637;49.984;20.426;2023-07-08T06:02:32;99976.97;;;21.87;57.23
52745;BME280;38637;49.984;20.426;2023-07-08T06:04:57;99973.25;;;21.92;57.29
52745;BME280;38637;49.984;20.426;2023-07-08T06:07:22;99977.94;;;21.91;54.32
52745;BME280;38637;49.984;20.426;2023-07-08T06:09:48;99966.00;;;21.91;54.61
52745;BME280;38637;49.984;20.426;2023-07-08T06:12:13;99974.53;;;21.86;52.85
52745;BME280;38637;49.984;20.426;2023-07-08T06:14:38;99970.25;;;21.88;53.25
52745;BME280;38637;49.984;20.426;2023-07-08T06:17:04;99971.75;;;21.94;54.05
52745;BME280;38637;49.984;20.426;2023-07-08T06:19:29;99968.78;;;21.91;54.39
52745;BME280;38637;49.984;20.426;2023-07-08T06:21:55;99965.38;;;21.94;54.81
52745;BME280;38637;49.984;20.426;2023-07-08T06:24:20;99975.84;;;21.97;54.85
52745;BME280;38637;49.984;20.426;2023-07-08T06:26:45;99971.56;;;21.91;54.91
52745;BME280;38637;49.984;20.426;2023-07-08T06:29:11;99974.34;;;21.91;54.02
52745;BME280;38637;49.984;20.426;2023-07-08T06:31:36;99971.91;;;21.89;53.28
52745;BME280;38637;49.984;20.426;2023-07-08T06:34:01;99977.13;;;21.91;53.08
52745;BME280;38637;49.984;20.426;2023-07-08T06:36:27;99976.50;;;21.94;54.09
52745;BME280;38637;49.984;20.426;2023-07-08T06:38:52;99983.22;;;21.93;53.07
52745;BME280;38637;49.984;20.426;2023-07-08T06:41:17;99976.00;;;22.00;52.89
52745;BME280;38637;49.984;20.426;2023-07-08T06:43:43;99974.72;;;21.98;54.09
52745;BME280;38637;49.984;20.426;2023-07-08T06:46:08;99968.97;;;21.94;55.54
52745;BME280;38637;49.984;20.426;2023-07-08T06:48:33;99976.22;;;22.04;57.64
52745;BME280;38637;49.984;20.426;2023-07-08T06:50:58;99982.44;;;22.01;56.21
52745;BME280;38637;49.984;20.426;2023-07-08T06:53:23;99977.03;;;22.05;56.28
52745;BME280;38637;49.984;20.426;2023-07-08T06:55:49;99973.44;;;22.13;55.31
52745;BME280;38637;49.984;20.426;2023-07-08T06:58:14;99977.06;;;22.13;54.47
52745;BME280;38637;49.984;20.426;2023-07-08T07:00:43;99975.09;;;22.14;54.36
52745;BME280;38637;49.984;20.426;2023-07-08T07:03:08;99972.16;;;22.19;54.55
52745;BME280;38637;49.984;20.426;2023-07-08T07:05:33;99973.00;;;22.28;54.69
52745;BME280;38637;49.984;20.426;2023-07-08T07:07:58;99963.19;;;22.31;52.77
52745;BME280;38637;49.984;20.426;2023-07-08T07:10:24;99962.03;;;22.40;54.16
52745;BME280;38637;49.984;20.426;2023-07-08T07:12:49;99964.81;;;22.40;53.93
52745;BME280;38637;49.984;20.426;2023-07-08T07:15:14;99971.06;;;22.46;53.31
52745;BME280;38637;49.984;20.426;2023-07-08T07:17:40;99973.84;;;22.55;53.23
52745;BME280;38637;49.984;20.426;2023-07-08T07:20:05;99964.84;;;22.58;54.78
52745;BME280;38637;49.984;20.426;2023-07-08T07:22:30;99959.78;;;22.60;54.59
52745;BME280;38637;49.984;20.426;2023-07-08T07:24:56;99959.28;;;22.66;54.32
52745;BME280;38637;49.984;20.426;2023-07-08T07:27:21;99962.22;;;22.70;54.65
52745;BME280;38637;49.984;20.426;2023-07-08T07:29:49;99960.09;;;22.76;54.11
52745;BME280;38637;49.984;20.426;2023-07-08T07:32:15;99966.63;;;22.80;54.80
52745;BME280;38637;49.984;20.426;2023-07-08T07:34:41;99952.72;;;22.80;54.68
52745;BME280;38637;49.984;20.426;2023-07-08T07:37:13;99955.66;;;22.83;51.48
52745;BME280;38637;49.984;20.426;2023-07-08T07:39:39;99951.38;;;22.86;52.09
52745;BME280;38637;49.984;20.426;2023-07-08T07:42:04;99954.50;;;22.84;50.67
52745;BME280;38637;49.984;20.426;2023-07-08T07:44:29;99960.91;;;22.85;51.49
52745;BME280;38637;49.984;20.426;2023-07-08T07:46:54;99974.97;;;22.88;49.68
52745;BME280;38637;49.984;20.426;2023-07-08T07:49:20;99977.28;;;22.95;48.90
52745;BME280;38637;49.984;20.426;2023-07-08T07:51:45;99978.44;;;22.94;47.44
52745;BME280;38637;49.984;20.426;2023-07-08T07:54:11;99969.75;;;22.96;44.27
52745;BME280;38637;49.984;20.426;2023-07-08T07:56:36;99964.50;;;23.03;47.88
52745;BME280;38637;49.984;20.426;2023-07-08T07:59:02;99964.16;;;23.04;48.42
52745;BME280;38637;49.984;20.426;2023-07-08T08:01:27;99966.63;;;23.06;48.32
52745;BME280;38637;49.984;20.426;2023-07-08T08:03:52;99973.84;;;23.07;47.77
52745;BME280;38637;49.984;20.426;2023-07-08T08:06:18;99964.31;;;23.08;45.84
52745;BME280;38637;49.984;20.426;2023-07-08T08:08:43;99957.13;;;22.98;43.99
52745;BME280;38637;49.984;20.426;2023-07-08T08:11:09;99965.31;;;23.03;46.44
52745;BME280;38637;49.984;20.426;2023-07-08T08:13:34;99959.41;;;23.13;46.62
52745;BME280;38637;49.984;20.426;2023-07-08T08:15:59;99957.25;;;23.19;47.49
52745;BME280;38637;49.984;20.426;2023-07-08T08:18:25;99959.38;;;23.22;46.32
52745;BME280;38637;49.984;20.426;2023-07-08T08:20:50;99958.72;;;23.25;45.87
52745;BME280;38637;49.984;20.426;2023-07-08T08:23:16;99958.88;;;23.29;46.07
52745;BME280;38637;49.984;20.426;2023-07-08T08:25:41;99955.91;;;23.34;45.97
52745;BME280;38637;49.984;20.426;2023-07-08T08:28:06;99956.56;;;23.39;46.11
52745;BME280;38637;49.984;20.426;2023-07-08T08:30:32;99953.09;;;23.43;45.38
52745;BME280;38637;49.984;20.426;2023-07-08T08:32:57;99959.13;;;23.45;44.06
52745;BME280;38637;49.984;20.426;2023-07-08T08:35:22;99960.13;;;23.49;42.60
52745;BME280;38637;49.984;20.426;2023-07-08T08:37:48;99947.13;;;23.53;41.60
52745;BME280;38637;49.984;20.426;2023-07-08T08:40:15;99948.59;;;23.59;41.11
52745;BME280;38637;49.984;20.426;2023-07-08T08:42:42;99950.72;;;23.62;40.86
52745;BME280;38637;49.984;20.426;2023-07-08T08:45:10;99954.47;;;23.66;39.14
52745;BME280;38637;49.984;20.426;2023-07-08T08:52:45;99938.22;;;23.68;38.15
52745;BME280;38637;49.984;20.426;2023-07-08T08:55:11;99947.59;;;23.72;36.73
52745;BME280;38637;49.984;20.426;2023-07-08T08:57:49;99944.81;;;23.72;38.18
52745;BME280;38637;49.984;20.426;2023-07-08T09:00:20;99949.03;;;23.78;41.23
52745;BME280;38637;49.984;20.426;2023-07-08T09:03:01;99954.28;;;23.80;38.78
52745;BME280;38637;49.984;20.426;2023-07-08T09:05:28;99953.94;;;23.81;35.66
52745;BME280;38637;49.984;20.426;2023-07-08T09:10:29;99953.41;;;23.88;37.59
52745;BME280;38637;49.984;20.426;2023-07-08T09:12:56;99953.38;;;23.97;38.31
52745;BME280;38637;49.984;20.426;2023-07-08T09:15:22;99954.50;;;23.96;39.87
52745;BME280;38637;49.984;20.426;2023-07-08T09:17:50;99948.06;;;24.04;38.80
52745;BME280;38637;49.984;20.426;2023-07-08T09:20:25;99956.94;;;24.06;37.39
52745;BME280;38637;49.984;20.426;2023-07-08T09:23:38;99943.16;;;24.01;37.55
52745;BME280;38637;49.984;20.426;2023-07-08T09:26:21;99941.13;;;24.10;38.54
52745;BME280;38637;49.984;20.426;2023-07-08T09:28:40;99942.56;;;24.16;39.38
52745;BME280;38637;49.984;20.426;2023-07-08T09:31:07;99941.63;;;24.12;37.92
52745;BME280;38637;49.984;20.426;2023-07-08T09:33:33;99947.78;;;24.18;38.31
52745;BME280;38637;49.984;20.426;2023-07-08T09:35:59;99945.09;;;24.30;36.58
52745;BME280;38637;49.984;20.426;2023-07-08T09:38:25;99946.06;;;24.34;35.56
52745;BME280;38637;49.984;20.426;2023-07-08T09:40:51;99937.94;;;24.41;37.42
52745;BME280;38637;49.984;20.426;2023-07-08T09:45:50;99937.72;;;24.55;38.07
52745;BME280;38637;49.984;20.426;2023-07-08T09:48:24;99942.63;;;24.58;36.93
52745;BME280;38637;49.984;20.426;2023-07-08T09:50:51;99945.19;;;24.63;37.66
52745;BME280;38637;49.984;20.426;2023-07-08T09:53:16;99938.91;;;24.66;36.71
52745;BME280;38637;49.984;20.426;2023-07-08T09:55:42;99931.00;;;24.68;35.39
52745;BME280;38637;49.984;20.426;2023-07-08T09:58:08;99933.00;;;24.68;35.60
52745;BME280;38637;49.984;20.426;2023-07-08T10:00:40;99930.22;;;24.68;35.75
52745;BME280;38637;49.984;20.426;2023-07-08T10:03:11;99930.53;;;24.66;35.55
52745;BME280;38637;49.984;20.426;2023-07-08T10:05:39;99936.59;;;24.68;35.85
52745;BME280;38637;49.984;20.426;2023-07-08T10:08:13;99929.84;;;24.69;36.21
52745;BME280;38637;49.984;20.426;2023-07-08T10:10:39;99925.44;;;24.68;35.40
52745;BME280;38637;49.984;20.426;2023-07-08T10:13:06;99927.63;;;24.63;34.25
52745;BME280;38637;49.984;20.426;2023-07-08T10:15:37;99928.09;;;24.65;35.42
52745;BME280;38637;49.984;20.426;2023-07-08T10:18:04;99919.84;;;24.68;35.63
52745;BME280;38637;49.984;20.426;2023-07-08T10:20:37;99920.66;;;24.69;34.19
52745;BME280;38637;49.984;20.426;2023-07-08T10:23:47;99923.13;;;24.70;33.58
52745;BME280;38637;49.984;20.426;2023-07-08T10:25:58;99919.28;;;24.75;34.65
52745;BME280;38637;49.984;20.426;2023-07-08T10:36:08;99917.34;;;24.88;36.60
52745;BME280;38637;49.984;20.426;2023-07-08T10:41:30;99897.56;;;24.93;36.70
52745;BME280;38637;49.984;20.426;2023-07-08T10:44:01;99911.66;;;24.96;36.41
52745;BME280;38637;49.984;20.426;2023-07-08T10:56:40;99899.81;;;25.12;37.29
52745;BME280;38637;49.984;20.426;2023-07-08T10:59:09;99894.94;;;25.09;35.20
52745;BME280;38637;49.984;20.426;2023-07-08T11:06:59;99894.25;;;25.12;36.11
52745;BME280;38637;49.984;20.426;2023-07-08T11:09:32;99888.78;;;25.15;36.69
52745;BME280;38637;49.984;20.426;2023-07-08T11:12:01;99886.38;;;25.14;36.53
52745;BME280;38637;49.984;20.426;2023-07-08T11:14:30;99883.00;;;25.20;37.38
52745;BME280;38637;49.984;20.426;2023-07-08T11:19:34;99877.03;;;25.22;37.45
52745;BME280;38637;49.984;20.426;2023-07-08T11:22:03;99874.84;;;25.28;35.67
52745;BME280;38637;49.984;20.426;2023-07-08T11:24:34;99871.94;;;25.36;36.91
52745;BME280;38637;49.984;20.426;2023-07-08T11:27:13;99874.84;;;25.40;33.98
52745;BME280;38637;49.984;20.426;2023-07-08T11:29:51;99884.28;;;25.35;37.13
52745;BME280;38637;49.984;20.426;2023-07-08T11:32:18;99876.25;;;25.34;35.33
52745;BME280;38637;49.984;20.426;2023-07-08T11:34:44;99866.13;;;25.29;35.90
52745;BME280;38637;49.984;20.426;2023-07-08T11:37:12;99868.44;;;25.27;37.56
52745;BME280;38637;49.984;20.426;2023-07-08T11:39:39;99866.56;;;25.19;35.94
52745;BME280;38637;49.984;20.426;2023-07-08T11:44:43;99855.97;;;25.37;36.96
52745;BME280;38637;49.984;20.426;2023-07-08T11:47:15;99858.66;;;25.45;37.81
52745;BME280;38637;49.984;20.426;2023-07-08T11:49:42;99858.88;;;25.53;38.21
52745;BME280;38637;49.984;20.426;2023-07-08T11:52:09;99861.94;;;25.48;36.54
52745;BME280;38637;49.984;20.426;2023-07-08T11:54:39;99859.94;;;25.48;36.24
52745;BME280;38637;49.984;20.426;2023-07-08T11:57:23;99850.84;;;25.51;37.18
52745;BME280;38637;49.984;20.426;2023-07-08T11:59:56;99847.22;;;25.63;35.70
52745;BME280;38637;49.984;20.426;2023-07-08T12:02:30;99851.75;;;25.67;35.33
52745;BME280;38637;49.984;20.426;2023-07-08T12:05:12;99841.84;;;25.70;36.27
52745;BME280;38637;49.984;20.426;2023-07-08T12:12:47;99834.75;;;25.73;36.90
52745;BME280;38637;49.984;20.426;2023-07-08T12:15:23;99841.97;;;25.74;37.14
52745;BME280;38637;49.984;20.426;2023-07-08T12:17:50;99833.34;;;25.79;37.52
52745;BME280;38637;49.984;20.426;2023-07-08T12:20:38;99838.25;;;25.82;38.66
52745;BME280;38637;49.984;20.426;2023-07-08T12:23:11;99842.22;;;25.68;38.10
52745;BME280;38637;49.984;20.426;2023-07-08T12:25:36;99833.00;;;25.68;36.94
52745;BME280;38637;49.984;20.426;2023-07-08T12:28:02;99838.25;;;25.82;37.42
52745;BME280;38637;49.984;20.426;2023-07-08T12:30:28;99841.38;;;25.80;36.47
52745;BME280;38637;49.984;20.426;2023-07-08T12:32:54;99828.09;;;25.89;36.40
52745;BME280;38637;49.984;20.426;2023-07-08T12:35:24;99830.19;;;25.93;35.48
52745;BME280;38637;49.984;20.426;2023-07-08T12:37:54;99833.34;;;25.91;36.71
52745;BME280;38637;49.984;20.426;2023-07-08T12:40:23;99833.25;;;25.87;37.00
52745;BME280;38637;49.984;20.426;2023-07-08T12:42:50;99832.25;;;25.96;37.18
52745;BME280;38637;49.984;20.426;2023-07-08T12:45:16;99836.69;;;26.09;36.02
52745;BME280;38637;49.984;20.426;2023-07-08T12:47:42;99828.47;;;26.16;35.98
52745;BME280;38637;49.984;20.426;2023-07-08T12:50:08;99827.69;;;26.16;35.73
52745;BME280;38637;49.984;20.426;2023-07-08T12:52:34;99830.00;;;26.13;36.08
52745;BME280;38637;49.984;20.426;2023-07-08T12:54:59;99823.69;;;26.17;36.58
52745;BME280;38637;49.984;20.426;2023-07-08T12:57:24;99823.34;;;26.18;36.61
52745;BME280;38637;49.984;20.426;2023-07-08T12:59:49;99824.97;;;26.19;36.91
52745;BME280;38637;49.984;20.426;2023-07-08T13:02:15;99826.50;;;26.17;36.91
52745;BME280;38637;49.984;20.426;2023-07-08T13:04:41;99823.09;;;26.23;35.97
52745;BME280;38637;49.984;20.426;2023-07-08T13:07:09;99821.22;;;26.27;35.62
52745;BME280;38637;49.984;20.426;2023-07-08T13:09:43;99812.44;;;26.29;35.10
52745;BME280;38637;49.984;20.426;2023-07-08T13:12:15;99818.41;;;26.27;35.13
52745;BME280;38637;49.984;20.426;2023-07-08T13:14:41;99816.09;;;26.29;35.94
52745;BME280;38637;49.984;20.426;2023-07-08T13:17:10;99818.50;;;26.31;36.78
52745;BME280;38637;49.984;20.426;2023-07-08T13:19:35;99815.25;;;26.29;36.25
52745;BME280;38637;49.984;20.426;2023-07-08T13:22:01;99804.75;;;26.26;36.71
52745;BME280;38637;49.984;20.426;2023-07-08T13:24:30;99811.91;;;26.23;36.34
52745;BME280;38637;49.984;20.426;2023-07-08T13:26:56;99805.13;;;26.24;34.95
52745;BME280;38637;49.984;20.426;2023-07-08T13:29:22;99815.16;;;26.25;34.93
52745;BME280;38637;49.984;20.426;2023-07-08T13:31:48;99805.31;;;26.31;34.70
52745;BME280;38637;49.984;20.426;2023-07-08T13:34:15;99812.44;;;26.29;34.36
52745;BME280;38637;49.984;20.426;2023-07-08T13:36:42;99816.53;;;26.31;34.23
52745;BME280;38637;49.984;20.426;2023-07-08T13:39:09;99810.50;;;26.29;34.46
52745;BME280;38637;49.984;20.426;2023-07-08T13:41:37;99821.69;;;26.29;35.64